KBNO/BNO METAR and TAF weather

Enter ICAO airport designator
Station Type Date Time Source
KBNO METAR 2018/01/19 16:53 UTC NOAA

KBNO 191653Z AUTO 21006KT 10SM BKN085 M02/M04 A2995 RMK AO2 SLP162 T10221044


Station Type Date Time Source
KBNO Decoded METAR 2018/01/19 16:53 UTC NOAA

BURNS MUNICIPAL AIRPORT, OR, United States (KBNO) 43-36N 118-57W 1264M
Jan 19, 2018 - 11:53 AM EST / 2018.01.19 1653 UTC
Wind: from the SSW (210 degrees) at 7 MPH (6 KT):0
Visibility: 10 mile(s):0
Sky conditions: mostly cloudy
Temperature: 28.0 F (-2.2 C)
Windchill: 21 F (-6 C):1
Dew Point: 24.1 F (-4.4 C)
Relative Humidity: 84%
Pressure (altimeter): 29.95 in. Hg (1014 hPa)
ob: KBNO 191653Z AUTO 21006KT 10SM BKN085 M02/M04 A2995 RMK AO2 SLP162 T10221044
cycle: 17

Station Type Date Time Source
KBNO TAF 2018/01/19 12:36 UTC NOAA

TAF KBNO 191135Z 1912/2012 VRB06KT P6SM OVC070


Example: see airport list